createdAt,value
2023-01-01T00:00:27.064Z,15.30
2023-01-01T00:02:53.541Z,15.08
2023-01-01T00:05:19.998Z,15.31
2023-01-01T00:07:46.915Z,15.14
2023-01-01T00:10:28.506Z,15.43
2023-01-01T00:12:58.539Z,15.17
2023-01-01T00:15:26.370Z,15.53
2023-01-01T00:17:53.364Z,14.96
2023-01-01T00:20:20.227Z,15.48
2023-01-01T00:22:55.348Z,15.50
2023-01-01T00:25:22.178Z,15.29
2023-01-01T00:27:48.921Z,15.29
2023-01-01T00:30:15.801Z,15.41
2023-01-01T00:32:42.242Z,15.30
2023-01-01T00:35:09.333Z,15.45
2023-01-01T00:37:37.065Z,15.71
2023-01-01T00:40:06.417Z,15.15
2023-01-01T00:42:32.875Z,15.80
2023-01-01T00:44:59.656Z,15.45
2023-01-01T00:47:26.162Z,15.64
2023-01-01T00:49:52.636Z,15.26
2023-01-01T00:52:19.078Z,15.41
2023-01-01T00:54:45.587Z,15.37
2023-01-01T00:57:12.017Z,15.66
2023-01-01T00:59:38.677Z,15.74
2023-01-01T01:02:05.385Z,15.29
2023-01-01T01:04:32.040Z,16.06
2023-01-01T01:06:58.544Z,15.59
2023-01-01T01:09:25.047Z,15.49
2023-01-01T01:11:51.531Z,15.48
2023-01-01T01:14:37.975Z,15.61
2023-01-01T01:17:04.494Z,15.87
2023-01-01T01:19:31.069Z,15.59
2023-01-01T01:21:57.599Z,15.46
2023-01-01T01:24:24.080Z,15.60
2023-01-01T01:26:50.571Z,15.54
2023-01-01T01:29:17.341Z,15.68
2023-01-01T01:31:43.961Z,15.58
2023-01-01T01:34:15.905Z,15.88
2023-01-01T01:36:42.742Z,15.71
2023-01-01T01:39:12.099Z,15.40
2023-01-01T01:41:38.710Z,15.46
2023-01-01T01:44:46.719Z,15.68
2023-01-01T01:47:29.639Z,15.60
2023-01-01T01:50:01.512Z,15.29
2023-01-01T01:52:28.571Z,15.99
2023-01-01T01:54:55.737Z,16.04
2023-01-01T01:57:22.821Z,15.77
2023-01-01T01:59:51.085Z,15.77
2023-01-01T02:02:38.953Z,15.75
2023-01-01T02:05:06.644Z,15.75
2023-01-01T02:07:34.265Z,15.91
2023-01-01T02:10:03.213Z,15.55
2023-01-01T02:12:30.012Z,15.77
2023-01-01T02:14:56.529Z,15.22
2023-01-01T02:17:39.333Z,15.32
2023-01-01T02:20:28.637Z,15.38
2023-01-01T02:23:14.760Z,15.04
2023-01-01T02:26:19.006Z,15.32
2023-01-01T02:28:58.709Z,15.74
2023-01-01T02:31:28.902Z,15.55
2023-01-01T02:34:00.158Z,15.41
2023-01-01T02:36:27.302Z,15.90
2023-01-01T02:38:55.728Z,15.63
2023-01-01T02:41:27.187Z,15.74
2023-01-01T02:43:53.808Z,15.65
2023-01-01T02:48:47.862Z,15.67
2023-01-01T02:51:14.392Z,15.89
2023-01-01T02:53:56.125Z,15.61
2023-01-01T02:56:42.841Z,15.77
2023-01-01T02:59:41.620Z,16.08
2023-01-01T03:02:13.494Z,16.04
2023-01-01T03:05:01.303Z,15.51
2023-01-01T03:07:49.493Z,16.17
2023-01-01T03:10:20.861Z,15.50
2023-01-01T03:12:53.482Z,15.83
2023-01-01T03:15:41.146Z,15.87
2023-01-01T03:18:35.401Z,15.71
2023-01-01T03:21:04.764Z,15.74
2023-01-01T03:23:43.233Z,15.53
2023-01-01T03:26:14.067Z,15.66
2023-01-01T03:28:46.743Z,15.69
2023-01-01T03:31:19.065Z,15.86
2023-01-01T03:33:48.547Z,15.74
2023-01-01T03:36:20.084Z,15.92
2023-01-01T03:38:52.924Z,16.19
2023-01-01T03:41:36.407Z,15.66
2023-01-01T03:44:14.825Z,15.66
2023-01-01T03:46:42.532Z,15.72
2023-01-01T03:49:10.649Z,15.76
2023-01-01T03:52:09.633Z,15.95
2023-01-01T03:54:46.285Z,15.67
2023-01-01T03:57:27.731Z,15.66
2023-01-01T04:00:08.105Z,15.50
2023-01-01T04:02:38.792Z,15.13
2023-01-01T04:05:07.658Z,14.82
2023-01-01T04:07:35.576Z,14.60
2023-01-01T04:10:02.539Z,14.82
2023-01-01T04:12:30.126Z,14.80
2023-01-01T04:14:56.574Z,14.80
2023-01-01T04:17:23.108Z,14.70
2023-01-01T04:19:54.833Z,14.52
2023-01-01T04:22:23.449Z,14.86
2023-01-01T04:24:50.331Z,14.46
2023-01-01T04:27:16.824Z,14.68
2023-01-01T04:29:43.267Z,14.71
2023-01-01T04:32:09.769Z,14.70
2023-01-01T04:34:36.199Z,14.50
2023-01-01T04:37:04.848Z,15.05
2023-01-01T04:39:34.733Z,14.92
2023-01-01T04:42:01.301Z,14.75
2023-01-01T04:44:27.756Z,15.17
2023-01-01T04:46:58.400Z,14.88
2023-01-01T04:49:26.748Z,15.01
2023-01-01T04:51:53.192Z,14.68
2023-01-01T04:54:19.675Z,14.75
2023-01-01T04:56:46.123Z,15.24
2023-01-01T04:59:12.602Z,14.71
2023-01-01T05:01:39.146Z,14.76
2023-01-01T05:04:05.708Z,14.75
2023-01-01T05:06:32.172Z,14.84
2023-01-01T05:08:59.623Z,14.88
2023-01-01T05:11:28.339Z,14.89
2023-01-01T05:13:56.430Z,14.40
2023-01-01T05:16:25.199Z,14.75
2023-01-01T05:18:52.035Z,14.94
2023-01-01T05:21:23.671Z,14.55
2023-01-01T05:23:54.640Z,14.99
2023-01-01T05:26:23.527Z,14.56
2023-01-01T05:28:50.847Z,14.90
2023-01-01T05:31:20.281Z,15.23
2023-01-01T05:33:47.239Z,14.80
2023-01-01T05:36:22.368Z,15.19
2023-01-01T05:38:49.131Z,15.03
2023-01-01T05:41:16.503Z,14.98
2023-01-01T05:43:43.499Z,15.33
2023-01-01T05:46:16.385Z,14.92
2023-01-01T05:48:43.653Z,15.03
2023-01-01T05:51:12.182Z,14.94
2023-01-01T05:53:39.087Z,15.11
2023-01-01T05:56:06.685Z,15.37
2023-01-01T05:58:34.652Z,14.63
2023-01-01T06:01:09.515Z,15.12
2023-01-01T06:03:36.458Z,15.19
2023-01-01T06:06:07.929Z,14.70
2023-01-01T06:08:34.653Z,15.06
2023-01-01T06:11:06.008Z,14.43
2023-01-01T06:13:32.952Z,14.40
2023-01-01T06:16:00.725Z,14.61
2023-01-01T06:18:30.549Z,14.97
2023-01-01T06:21:22.758Z,14.44
2023-01-01T06:23:49.546Z,14.07
2023-01-01T06:26:18.678Z,14.20
2023-01-01T06:28:45.656Z,14.09
2023-01-01T06:31:14.287Z,14.19
2023-01-01T06:33:41.965Z,14.11
2023-01-01T06:36:10.846Z,14.43
2023-01-01T06:38:40.184Z,14.42
2023-01-01T06:41:18.311Z,14.05
2023-01-01T06:43:45.616Z,14.05
2023-01-01T06:46:24.060Z,13.79
2023-01-01T06:48:53.907Z,14.15
2023-01-01T06:51:25.400Z,14.25
2023-01-01T06:53:52.363Z,14.64
2023-01-01T06:56:19.558Z,14.53
2023-01-01T06:58:46.449Z,13.84
2023-01-01T07:01:24.370Z,14.38
2023-01-01T07:03:56.063Z,14.21
2023-01-01T07:06:23.611Z,14.58
2023-01-01T07:08:50.493Z,14.39
2023-01-01T07:11:17.455Z,14.13
2023-01-01T07:13:44.356Z,13.99
2023-01-01T07:16:13.505Z,14.06
2023-01-01T07:18:40.898Z,13.98
2023-01-01T07:21:29.591Z,14.33
2023-01-01T07:23:58.051Z,14.45
2023-01-01T07:26:29.096Z,14.45
2023-01-01T07:28:59.495Z,14.18
2023-01-01T07:31:30.925Z,14.36
2023-01-01T07:33:57.393Z,14.23
2023-01-01T07:36:23.814Z,14.72
2023-01-01T07:38:50.253Z,14.18
2023-01-01T07:41:16.689Z,14.48
2023-01-01T07:43:43.173Z,14.41
2023-01-01T07:46:13.191Z,14.08
2023-01-01T07:48:40.329Z,14.45
2023-01-01T07:51:06.975Z,14.18
2023-01-01T07:53:33.498Z,14.79
2023-01-01T07:56:00.161Z,14.48
2023-01-01T07:58:26.664Z,14.64
2023-01-01T08:00:53.134Z,14.63
2023-01-01T08:03:19.700Z,14.69
2023-01-01T08:05:46.215Z,14.46
2023-01-01T08:08:12.678Z,14.48
2023-01-01T08:10:39.198Z,14.80
2023-01-01T08:13:07.274Z,14.51
2023-01-01T08:15:34.275Z,14.27
2023-01-01T08:18:02.507Z,14.54
2023-01-01T08:20:30.710Z,14.73
2023-01-01T08:23:01.436Z,14.83
2023-01-01T08:25:31.236Z,14.50
2023-01-01T08:27:57.654Z,14.88
2023-01-01T08:30:24.398Z,14.49
2023-01-01T08:32:50.884Z,14.94
2023-01-01T08:35:17.337Z,14.73
2023-01-01T08:37:43.774Z,15.10
2023-01-01T08:40:12.394Z,14.93
2023-01-01T08:42:39.431Z,14.68
2023-01-01T08:45:06.640Z,14.71
2023-01-01T08:47:33.202Z,14.58
2023-01-01T08:49:59.690Z,15.15
2023-01-01T08:52:26.168Z,15.17
2023-01-01T08:54:52.724Z,15.09
2023-01-01T08:57:19.215Z,15.01
2023-01-01T08:59:45.743Z,14.70
2023-01-01T09:02:12.712Z,14.66
2023-01-01T09:04:39.464Z,14.10
2023-01-01T09:07:05.909Z,14.84
2023-01-01T09:09:32.397Z,14.50
2023-01-01T09:12:04.052Z,14.76
2023-01-01T09:14:31.092Z,14.32
2023-01-01T09:16:57.539Z,14.01
2023-01-01T09:19:24.063Z,13.97
2023-01-01T09:21:50.914Z,14.25
2023-01-01T09:24:17.357Z,14.06
2023-01-01T09:26:45.631Z,14.30
2023-01-01T09:29:12.093Z,14.48
2023-01-01T09:31:38.633Z,14.86
2023-01-01T09:34:05.125Z,14.89
2023-01-01T09:36:32.554Z,14.94
2023-01-01T09:38:59.736Z,14.95
2023-01-01T09:41:44.933Z,14.06
2023-01-01T09:44:36.171Z,15.06
2023-01-01T09:47:04.344Z,14.06
2023-01-01T09:49:44.823Z,13.97
2023-01-01T09:52:13.423Z,14.54
2023-01-01T09:55:01.440Z,14.34
2023-01-01T09:57:31.953Z,14.46
2023-01-01T09:59:59.636Z,14.26
2023-01-01T10:02:51.363Z,14.88
2023-01-01T10:05:38.164Z,14.41
2023-01-01T10:08:10.687Z,14.03
2023-01-01T10:10:42.036Z,14.17
2023-01-01T10:13:43.719Z,13.87
2023-01-01T10:16:32.075Z,14.71
2023-01-01T10:19:06.189Z,14.42
2023-01-01T10:21:34.311Z,14.30
2023-01-01T10:24:05.708Z,14.80
2023-01-01T10:26:33.143Z,14.68
2023-01-01T10:29:13.948Z,14.77
2023-01-01T10:31:46.234Z,15.14
2023-01-01T10:34:15.726Z,14.52
2023-01-01T10:36:43.783Z,15.11
2023-01-01T10:39:14.856Z,14.25
2023-01-01T10:41:41.336Z,14.28
2023-01-01T10:44:08.216Z,14.12
2023-01-01T10:46:35.400Z,14.39
2023-01-01T10:49:12.067Z,14.17
2023-01-01T10:51:59.449Z,13.92
2023-01-01T10:54:38.957Z,14.33
2023-01-01T10:57:22.331Z,14.68
2023-01-01T10:59:54.134Z,14.30
2023-01-01T11:02:24.869Z,14.28
2023-01-01T11:04:53.136Z,14.78
2023-01-01T11:07:30.720Z,14.38
2023-01-01T11:10:04.158Z,14.14
2023-01-01T11:15:36.050Z,14.20
2023-01-01T11:18:04.688Z,14.42
2023-01-01T11:20:31.448Z,14.66
2023-01-01T11:22:57.976Z,14.50
2023-01-01T11:25:29.676Z,14.61
2023-01-01T11:28:21.935Z,14.24
2023-01-01T11:31:00.071Z,14.08
2023-01-01T11:33:27.639Z,14.74
2023-01-01T11:35:55.300Z,14.30
2023-01-01T11:38:29.240Z,14.27
2023-01-01T11:41:02.779Z,14.59
2023-01-01T11:43:35.311Z,14.33
2023-01-01T11:46:07.243Z,15.00
2023-01-01T11:48:35.028Z,14.77
2023-01-01T11:51:06.855Z,14.40
2023-01-01T11:53:41.688Z,14.04
2023-01-01T11:56:28.427Z,14.35
2023-01-01T11:59:00.398Z,14.14
2023-01-01T12:01:36.031Z,14.06
2023-01-01T12:04:08.069Z,14.75
2023-01-01T12:06:48.283Z,14.81
2023-01-01T12:09:19.567Z,14.81
2023-01-01T12:11:57.620Z,15.42
2023-01-01T12:14:55.285Z,14.69
2023-01-01T12:17:26.724Z,14.95
2023-01-01T12:19:58.617Z,14.77
2023-01-01T12:22:25.355Z,14.49
2023-01-01T12:24:52.479Z,14.05
2023-01-01T12:27:40.690Z,14.57
2023-01-01T12:30:22.724Z,14.53
2023-01-01T12:33:08.580Z,14.06
2023-01-01T12:36:05.711Z,13.86
2023-01-01T12:38:40.952Z,14.28
2023-01-01T12:41:31.575Z,14.14
2023-01-01T12:44:14.483Z,14.07
2023-01-01T12:46:51.149Z,14.04
2023-01-01T12:49:29.856Z,14.34
2023-01-01T12:52:05.574Z,13.81
2023-01-01T12:54:56.897Z,13.81
2023-01-01T12:57:36.595Z,14.13
2023-01-01T13:00:05.208Z,14.43
2023-01-01T13:02:35.002Z,13.99
2023-01-01T13:05:06.171Z,14.12
2023-01-01T13:07:39.206Z,14.58
2023-01-01T13:10:20.812Z,14.16
2023-01-01T13:12:48.084Z,15.04
2023-01-01T13:15:40.372Z,14.80
2023-01-01T13:18:15.788Z,13.94
2023-01-01T13:20:44.880Z,14.43
2023-01-01T13:23:36.337Z,14.15
2023-01-01T13:26:18.677Z,14.27
2023-01-01T13:28:57.156Z,14.26
2023-01-01T13:31:49.951Z,14.17
2023-01-01T13:34:35.950Z,14.51
2023-01-01T13:37:11.522Z,14.42
2023-01-01T13:39:58.271Z,14.39
2023-01-01T13:42:44.972Z,14.43
2023-01-01T13:46:10.054Z,14.62
2023-01-01T13:48:17.049Z,14.39
2023-01-01T13:51:23.332Z,13.96
2023-01-01T13:54:26.566Z,13.59
2023-01-01T13:56:57.806Z,14.21
2023-01-01T13:59:42.596Z,14.29
2023-01-01T14:02:26.411Z,13.94
2023-01-01T14:05:05.068Z,13.91
2023-01-01T14:07:53.222Z,14.27
2023-01-01T14:10:21.861Z,14.08
2023-01-01T14:12:49.415Z,13.96
2023-01-01T14:15:23.687Z,13.96
2023-01-01T14:17:51.057Z,13.51
2023-01-01T14:20:19.303Z,13.59
2023-01-01T14:22:46.760Z,13.63
2023-01-01T14:25:27.372Z,13.77
2023-01-01T14:27:58.064Z,14.05
2023-01-01T14:30:25.234Z,14.06
2023-01-01T14:33:02.563Z,13.83
2023-01-01T14:35:29.671Z,13.76
2023-01-01T14:37:56.527Z,13.67
2023-01-01T14:40:28.750Z,13.86
2023-01-01T14:42:58.705Z,13.52
2023-01-01T14:45:25.772Z,13.77
2023-01-01T14:47:54.817Z,13.87
2023-01-01T14:50:42.713Z,13.72
2023-01-01T14:53:14.122Z,13.83
2023-01-01T14:55:43.124Z,13.68
2023-01-01T14:58:19.770Z,13.13
2023-01-01T15:00:46.614Z,13.49
2023-01-01T15:03:16.747Z,13.34
2023-01-01T15:05:45.535Z,13.57
2023-01-01T15:08:24.100Z,13.15
2023-01-01T15:10:51.005Z,12.94
2023-01-01T15:13:20.353Z,13.58
2023-01-01T15:15:49.213Z,13.47
2023-01-01T15:18:38.627Z,13.42
2023-01-01T15:21:31.391Z,13.10
2023-01-01T15:24:01.492Z,13.55
2023-01-01T15:26:41.527Z,13.35
2023-01-01T15:29:10.622Z,13.32
2023-01-01T15:31:45.891Z,13.53
2023-01-01T15:34:22.015Z,13.85
2023-01-01T15:36:48.852Z,13.46
2023-01-01T15:39:15.347Z,12.87
2023-01-01T15:41:50.630Z,13.19
2023-01-01T15:44:28.986Z,13.14
2023-01-01T15:47:06.539Z,13.50
2023-01-01T15:49:33.424Z,13.16
2023-01-01T15:52:04.148Z,13.33
2023-01-01T15:54:32.299Z,13.45
2023-01-01T15:56:58.818Z,13.91
2023-01-01T15:59:28.262Z,13.48
2023-01-01T16:02:28.043Z,13.43
2023-01-01T16:04:54.687Z,13.36
2023-01-01T16:07:23.563Z,13.58
2023-01-01T16:09:57.045Z,13.46
2023-01-01T16:12:24.439Z,13.58
2023-01-01T16:14:50.952Z,13.40
2023-01-01T16:17:19.222Z,13.31
2023-01-01T16:19:46.745Z,13.49
2023-01-01T16:22:17.357Z,13.47
2023-01-01T16:24:45.304Z,13.47
2023-01-01T16:27:12.223Z,13.48
2023-01-01T16:29:43.159Z,13.55
2023-01-01T16:32:19.521Z,13.23
2023-01-01T16:34:46.056Z,13.17
2023-01-01T16:37:12.564Z,13.41
2023-01-01T16:39:39.306Z,13.26
2023-01-01T16:42:05.904Z,13.07
2023-01-01T16:44:32.459Z,13.18
2023-01-01T16:46:59.073Z,13.25
2023-01-01T16:49:25.527Z,13.18
2023-01-01T16:51:52.000Z,13.14
2023-01-01T16:54:18.889Z,13.23
2023-01-01T16:56:45.360Z,13.17
2023-01-01T16:59:12.216Z,13.21
2023-01-01T17:01:38.961Z,12.95
2023-01-01T17:04:05.602Z,12.81
2023-01-01T17:06:32.216Z,12.78
2023-01-01T17:09:00.407Z,12.80
2023-01-01T17:11:27.043Z,12.89
2023-01-01T17:13:53.634Z,12.87
2023-01-01T17:16:27.067Z,12.91
2023-01-01T17:21:42.523Z,12.97
2023-01-01T17:24:09.200Z,13.06
2023-01-01T17:26:35.764Z,12.55
2023-01-01T17:29:03.061Z,12.91
2023-01-01T17:31:29.924Z,12.78
2023-01-01T17:33:56.683Z,13.07
2023-01-01T17:36:23.763Z,13.32
2023-01-01T17:38:50.362Z,12.97
2023-01-01T17:41:17.673Z,12.98
2023-01-01T17:43:46.818Z,12.61
2023-01-01T17:46:17.357Z,12.89
2023-01-01T17:48:44.535Z,12.81
2023-01-01T17:51:12.490Z,12.95
2023-01-01T17:53:39.954Z,12.72
2023-01-01T17:56:07.804Z,13.21
2023-01-01T17:58:35.701Z,12.79
2023-01-01T18:01:23.872Z,13.02
2023-01-01T18:03:52.554Z,13.06
2023-01-01T18:06:19.691Z,12.76
2023-01-01T18:08:46.621Z,12.98
2023-01-01T18:11:13.415Z,12.56
2023-01-01T18:13:39.893Z,12.76
2023-01-01T18:16:08.162Z,12.68
2023-01-01T18:18:39.170Z,12.94
2023-01-01T18:21:08.383Z,12.64
2023-01-01T18:23:36.189Z,12.92
2023-01-01T18:26:04.219Z,12.81
2023-01-01T18:28:31.034Z,13.22
2023-01-01T18:31:07.700Z,13.03
2023-01-01T18:33:35.088Z,13.07
2023-01-01T18:36:10.471Z,13.05
2023-01-01T18:38:37.084Z,12.86
2023-01-01T18:41:09.774Z,13.03
2023-01-01T18:43:36.331Z,12.92
2023-01-01T18:46:03.060Z,12.99
2023-01-01T18:48:29.621Z,12.97
2023-01-01T18:50:56.891Z,12.82
2023-01-01T18:53:24.365Z,13.11
2023-01-01T18:55:59.385Z,13.03
2023-01-01T18:58:25.842Z,12.99
2023-01-01T19:00:53.762Z,12.94
2023-01-01T19:03:37.516Z,13.13
2023-01-01T19:06:20.297Z,13.20
2023-01-01T19:08:46.874Z,13.29
2023-01-01T19:11:17.269Z,13.26
2023-01-01T19:13:44.665Z,13.16
2023-01-01T19:16:11.496Z,12.98
2023-01-01T19:18:40.793Z,13.11
2023-01-01T19:21:13.391Z,12.71
2023-01-01T19:23:50.954Z,13.01
2023-01-01T19:26:33.215Z,13.07
2023-01-01T19:29:16.974Z,12.66
2023-01-01T19:31:45.207Z,13.20
2023-01-01T19:34:11.776Z,12.80
2023-01-01T19:36:38.749Z,13.08
2023-01-01T19:39:06.261Z,12.89
2023-01-01T19:41:32.978Z,12.96
2023-01-01T19:43:59.913Z,12.68
2023-01-01T19:46:26.571Z,12.87
2023-01-01T19:48:53.350Z,13.05
2023-01-01T19:51:22.506Z,13.08
2023-01-01T19:53:50.144Z,13.01
2023-01-01T19:56:18.000Z,12.75
2023-01-01T19:58:45.558Z,12.72
2023-01-01T20:01:12.796Z,12.89
2023-01-01T20:03:56.920Z,12.85
2023-01-01T20:06:24.859Z,12.99
2023-01-01T20:08:51.932Z,12.91
2023-01-01T20:11:19.033Z,12.77
2023-01-01T20:13:46.393Z,12.92
2023-01-01T20:16:13.852Z,12.82
2023-01-01T20:18:40.426Z,12.87
2023-01-01T20:21:27.096Z,13.20
2023-01-01T20:23:56.043Z,13.12
2023-01-01T20:26:26.497Z,12.99
2023-01-01T20:29:12.931Z,13.05
2023-01-01T20:31:40.996Z,13.05
2023-01-01T20:34:08.124Z,13.13
2023-01-01T20:36:54.226Z,13.29
2023-01-01T20:39:22.825Z,13.13
2023-01-01T20:41:50.215Z,13.23
2023-01-01T20:44:19.995Z,13.42
2023-01-01T20:46:48.186Z,13.43
2023-01-01T20:49:17.114Z,13.30
2023-01-01T20:51:45.133Z,12.85
2023-01-01T20:54:12.432Z,13.36
2023-01-01T20:56:38.944Z,13.39
2023-01-01T20:59:31.328Z,13.51
2023-01-01T21:01:52.124Z,13.46
2023-01-01T21:04:18.695Z,13.32
2023-01-01T21:06:45.243Z,13.42
2023-01-01T21:09:11.756Z,13.13
2023-01-01T21:11:38.298Z,13.17
2023-01-01T21:14:05.085Z,13.13
2023-01-01T21:16:33.159Z,12.88
2023-01-01T21:19:01.437Z,13.26
2023-01-01T21:21:57.400Z,13.05
2023-01-01T21:24:29.571Z,13.05
2023-01-01T21:27:01.579Z,13.34
2023-01-01T21:29:31.895Z,13.49
2023-01-01T21:32:20.369Z,13.11
2023-01-01T21:34:49.027Z,13.27
2023-01-01T21:37:50.718Z,13.13
2023-01-01T21:40:39.793Z,12.84
2023-01-01T21:43:09.774Z,13.48
2023-01-01T21:45:42.630Z,12.95
2023-01-01T21:48:31.313Z,12.97
2023-01-01T21:50:58.898Z,13.23
2023-01-01T21:53:38.387Z,12.66
2023-01-01T21:56:28.505Z,12.77
2023-01-01T21:59:15.065Z,12.91
2023-01-01T22:01:45.288Z,12.85
2023-01-01T22:04:14.958Z,12.94
2023-01-01T22:06:43.725Z,12.62
2023-01-01T22:09:17.788Z,12.69
2023-01-01T22:11:48.186Z,12.39
2023-01-01T22:14:18.066Z,12.63
2023-01-01T22:16:45.660Z,13.08
2023-01-01T22:19:20.976Z,12.58
2023-01-01T22:21:48.411Z,12.80
2023-01-01T22:24:33.082Z,12.78
2023-01-01T22:27:14.747Z,12.38
2023-01-01T22:29:42.637Z,13.01
2023-01-01T22:32:15.738Z,12.84
2023-01-01T22:34:42.202Z,13.02
2023-01-01T22:37:20.576Z,12.82
2023-01-01T22:39:48.534Z,12.78
2023-01-01T22:42:18.348Z,12.84
2023-01-01T22:44:49.779Z,12.90
2023-01-01T22:47:17.275Z,12.69
2023-01-01T22:49:51.335Z,12.82
2023-01-01T22:52:17.851Z,13.14
2023-01-01T22:54:44.307Z,13.09
2023-01-01T22:57:10.868Z,13.14
2023-01-01T22:59:37.326Z,13.40
2023-01-01T23:02:03.845Z,13.49
2023-01-01T23:04:30.335Z,13.63
2023-01-01T23:06:56.827Z,13.63
2023-01-01T23:09:24.370Z,13.37
2023-01-01T23:11:53.309Z,13.29
2023-01-01T23:14:39.350Z,13.36
2023-01-01T23:17:06.043Z,13.60
2023-01-01T23:19:32.567Z,13.74
2023-01-01T23:21:59.730Z,13.61
2023-01-01T23:24:28.833Z,13.56
2023-01-01T23:26:55.589Z,13.30
2023-01-01T23:29:23.187Z,13.50
2023-01-01T23:31:49.739Z,13.64
2023-01-01T23:34:16.279Z,13.63
2023-01-01T23:36:43.527Z,13.65
2023-01-01T23:39:10.089Z,13.71
2023-01-01T23:41:36.641Z,13.34
2023-01-01T23:44:03.079Z,13.46
2023-01-01T23:46:32.792Z,13.62
2023-01-01T23:48:59.322Z,13.49
2023-01-01T23:51:25.848Z,13.66
2023-01-01T23:53:52.312Z,13.47
2023-01-01T23:56:18.765Z,13.45
2023-01-01T23:58:45.222Z,13.28
